sensor_id;sensor_type;location;lat;lon;timestamp;P1;durP1;ratioP1;P2;durP2;ratioP2
32216;SDS011;18709;51.140;4.088;2022-11-20T00:01:16;65.85;;;27.33;;
32216;SDS011;18709;51.140;4.088;2022-11-20T00:03:45;70.40;;;27.25;;
32216;SDS011;18709;51.140;4.088;2022-11-20T00:06:12;68.00;;;28.05;;
32216;SDS011;18709;51.140;4.088;2022-11-20T00:08:40;78.60;;;27.77;;
32216;SDS011;18709;51.140;4.088;2022-11-20T00:11:07;79.05;;;29.27;;
32216;SDS011;18709;51.140;4.088;2022-11-20T00:13:46;77.05;;;29.20;;
32216;SDS011;18709;51.140;4.088;2022-11-20T00:16:15;70.95;;;28.33;;
32216;SDS011;18709;51.140;4.088;2022-11-20T00:18:42;79.82;;;28.73;;
32216;SDS011;18709;51.140;4.088;2022-11-20T00:23:43;61.42;;;26.65;;
32216;SDS011;18709;51.140;4.088;2022-11-20T00:26:10;72.75;;;30.10;;
32216;SDS011;18709;51.140;4.088;2022-11-20T00:28:42;72.53;;;29.95;;
32216;SDS011;18709;51.140;4.088;2022-11-20T00:33:39;59.45;;;27.45;;
32216;SDS011;18709;51.140;4.088;2022-11-20T00:36:06;67.10;;;28.48;;
32216;SDS011;18709;51.140;4.088;2022-11-20T00:38:34;69.43;;;27.88;;
32216;SDS011;18709;51.140;4.088;2022-11-20T00:41:01;69.38;;;30.88;;
32216;SDS011;18709;51.140;4.088;2022-11-20T00:46:14;71.95;;;27.17;;
32216;SDS011;18709;51.140;4.088;2022-11-20T00:48:41;63.00;;;25.63;;
32216;SDS011;18709;51.140;4.088;2022-11-20T00:51:07;63.35;;;26.77;;
32216;SDS011;18709;51.140;4.088;2022-11-20T00:53:33;63.90;;;26.33;;
32216;SDS011;18709;51.140;4.088;2022-11-20T00:56:00;62.17;;;25.88;;
32216;SDS011;18709;51.140;4.088;2022-11-20T00:58:31;60.88;;;27.90;;
32216;SDS011;18709;51.140;4.088;2022-11-20T01:01:02;63.90;;;27.02;;
32216;SDS011;18709;51.140;4.088;2022-11-20T01:03:31;55.30;;;25.63;;
32216;SDS011;18709;51.140;4.088;2022-11-20T01:06:03;56.35;;;25.15;;
32216;SDS011;18709;51.140;4.088;2022-11-20T01:08:32;57.58;;;25.63;;
32216;SDS011;18709;51.140;4.088;2022-11-20T01:11:00;54.60;;;25.35;;
32216;SDS011;18709;51.140;4.088;2022-11-20T01:13:27;57.78;;;25.08;;
32216;SDS011;18709;51.140;4.088;2022-11-20T01:18:30;66.38;;;26.88;;
32216;SDS011;18709;51.140;4.088;2022-11-20T01:20:59;57.35;;;26.50;;
32216;SDS011;18709;51.140;4.088;2022-11-20T01:23:30;58.20;;;25.00;;
32216;SDS011;18709;51.140;4.088;2022-11-20T01:25:58;60.38;;;25.25;;
32216;SDS011;18709;51.140;4.088;2022-11-20T01:28:25;63.33;;;28.05;;
32216;SDS011;18709;51.140;4.088;2022-11-20T01:30:50;56.10;;;25.40;;
32216;SDS011;18709;51.140;4.088;2022-11-20T01:33:16;58.88;;;25.73;;
32216;SDS011;18709;51.140;4.088;2022-11-20T01:35:42;60.40;;;26.88;;
32216;SDS011;18709;51.140;4.088;2022-11-20T01:38:07;60.08;;;27.08;;
32216;SDS011;18709;51.140;4.088;2022-11-20T01:40:33;63.25;;;26.98;;
32216;SDS011;18709;51.140;4.088;2022-11-20T01:43:17;62.75;;;26.33;;
32216;SDS011;18709;51.140;4.088;2022-11-20T01:48:15;56.95;;;25.58;;
32216;SDS011;18709;51.140;4.088;2022-11-20T01:50:42;56.15;;;26.05;;
32216;SDS011;18709;51.140;4.088;2022-11-20T01:53:11;60.15;;;24.77;;
32216;SDS011;18709;51.140;4.088;2022-11-20T01:55:41;62.07;;;26.20;;
32216;SDS011;18709;51.140;4.088;2022-11-20T01:58:14;54.67;;;25.80;;
32216;SDS011;18709;51.140;4.088;2022-11-20T02:00:40;58.70;;;25.15;;
32216;SDS011;18709;51.140;4.088;2022-11-20T02:03:07;60.85;;;25.40;;
32216;SDS011;18709;51.140;4.088;2022-11-20T02:05:55;51.85;;;23.80;;
32216;SDS011;18709;51.140;4.088;2022-11-20T02:08:37;58.65;;;25.20;;
32216;SDS011;18709;51.140;4.088;2022-11-20T02:11:03;57.40;;;26.05;;
32216;SDS011;18709;51.140;4.088;2022-11-20T02:13:29;61.83;;;26.38;;
32216;SDS011;18709;51.140;4.088;2022-11-20T02:18:45;59.65;;;26.70;;
32216;SDS011;18709;51.140;4.088;2022-11-20T02:26:42;58.58;;;26.15;;
32216;SDS011;18709;51.140;4.088;2022-11-20T02:29:28;64.95;;;27.02;;
32216;SDS011;18709;51.140;4.088;2022-11-20T02:32:00;59.28;;;26.70;;
32216;SDS011;18709;51.140;4.088;2022-11-20T02:34:27;57.90;;;26.25;;
32216;SDS011;18709;51.140;4.088;2022-11-20T02:36:52;56.70;;;25.35;;
32216;SDS011;18709;51.140;4.088;2022-11-20T02:39:18;56.78;;;26.45;;
32216;SDS011;18709;51.140;4.088;2022-11-20T02:41:45;65.25;;;28.52;;
32216;SDS011;18709;51.140;4.088;2022-11-20T02:44:11;60.88;;;26.75;;
32216;SDS011;18709;51.140;4.088;2022-11-20T02:46:37;72.22;;;30.08;;
32216;SDS011;18709;51.140;4.088;2022-11-20T02:49:03;56.15;;;26.70;;
32216;SDS011;18709;51.140;4.088;2022-11-20T02:51:30;63.70;;;26.77;;
32216;SDS011;18709;51.140;4.088;2022-11-20T02:53:57;69.63;;;27.50;;
32216;SDS011;18709;51.140;4.088;2022-11-20T02:56:23;63.30;;;26.48;;
32216;SDS011;18709;51.140;4.088;2022-11-20T02:58:49;68.20;;;27.38;;
32216;SDS011;18709;51.140;4.088;2022-11-20T03:01:15;60.15;;;27.30;;
32216;SDS011;18709;51.140;4.088;2022-11-20T03:03:42;80.38;;;28.15;;
32216;SDS011;18709;51.140;4.088;2022-11-20T03:06:08;69.35;;;27.77;;
32216;SDS011;18709;51.140;4.088;2022-11-20T03:08:34;68.68;;;28.48;;
32216;SDS011;18709;51.140;4.088;2022-11-20T03:11:04;58.35;;;27.85;;
32216;SDS011;18709;51.140;4.088;2022-11-20T03:13:33;68.35;;;29.23;;
32216;SDS011;18709;51.140;4.088;2022-11-20T03:16:04;65.28;;;28.50;;
32216;SDS011;18709;51.140;4.088;2022-11-20T03:18:35;75.40;;;29.65;;
32216;SDS011;18709;51.140;4.088;2022-11-20T03:21:01;67.63;;;29.30;;
32216;SDS011;18709;51.140;4.088;2022-11-20T03:23:30;79.55;;;30.00;;
32216;SDS011;18709;51.140;4.088;2022-11-20T03:26:06;67.80;;;28.77;;
32216;SDS011;18709;51.140;4.088;2022-11-20T03:28:33;69.10;;;30.00;;
32216;SDS011;18709;51.140;4.088;2022-11-20T03:31:04;77.95;;;31.40;;
32216;SDS011;18709;51.140;4.088;2022-11-20T03:33:36;81.85;;;30.00;;
32216;SDS011;18709;51.140;4.088;2022-11-20T03:36:05;71.53;;;29.98;;
32216;SDS011;18709;51.140;4.088;2022-11-20T03:38:33;76.20;;;30.52;;
32216;SDS011;18709;51.140;4.088;2022-11-20T03:41:06;78.85;;;32.03;;
32216;SDS011;18709;51.140;4.088;2022-11-20T03:43:34;87.32;;;32.20;;
32216;SDS011;18709;51.140;4.088;2022-11-20T03:46:00;73.05;;;31.50;;
32216;SDS011;18709;51.140;4.088;2022-11-20T03:48:27;73.22;;;29.85;;
32216;SDS011;18709;51.140;4.088;2022-11-20T03:50:53;69.80;;;30.50;;
32216;SDS011;18709;51.140;4.088;2022-11-20T03:53:32;72.80;;;31.27;;
32216;SDS011;18709;51.140;4.088;2022-11-20T03:55:58;75.70;;;30.52;;
32216;SDS011;18709;51.140;4.088;2022-11-20T03:58:25;77.30;;;30.13;;
32216;SDS011;18709;51.140;4.088;2022-11-20T04:00:50;74.68;;;30.52;;
32216;SDS011;18709;51.140;4.088;2022-11-20T04:03:16;84.07;;;32.15;;
32216;SDS011;18709;51.140;4.088;2022-11-20T04:05:42;70.38;;;29.48;;
32216;SDS011;18709;51.140;4.088;2022-11-20T04:08:07;74.57;;;30.75;;
32216;SDS011;18709;51.140;4.088;2022-11-20T04:10:33;72.60;;;28.55;;
32216;SDS011;18709;51.140;4.088;2022-11-20T04:12:59;73.75;;;30.50;;
32216;SDS011;18709;51.140;4.088;2022-11-20T04:18:13;75.22;;;30.90;;
32216;SDS011;18709;51.140;4.088;2022-11-20T04:20:39;68.47;;;29.23;;
32216;SDS011;18709;51.140;4.088;2022-11-20T04:23:04;68.38;;;28.92;;
32216;SDS011;18709;51.140;4.088;2022-11-20T04:25:31;71.57;;;28.08;;
32216;SDS011;18709;51.140;4.088;2022-11-20T04:27:57;70.57;;;28.83;;
32216;SDS011;18709;51.140;4.088;2022-11-20T04:30:22;73.22;;;30.42;;
32216;SDS011;18709;51.140;4.088;2022-11-20T04:32:48;66.53;;;29.25;;
32216;SDS011;18709;51.140;4.088;2022-11-20T04:35:15;68.25;;;30.35;;
32216;SDS011;18709;51.140;4.088;2022-11-20T04:37:41;71.18;;;30.50;;
32216;SDS011;18709;51.140;4.088;2022-11-20T04:40:06;70.65;;;30.70;;
32216;SDS011;18709;51.140;4.088;2022-11-20T04:45:38;67.50;;;29.80;;
32216;SDS011;18709;51.140;4.088;2022-11-20T04:48:03;72.13;;;31.75;;
32216;SDS011;18709;51.140;4.088;2022-11-20T04:50:29;67.82;;;30.20;;
32216;SDS011;18709;51.140;4.088;2022-11-20T04:52:55;74.55;;;29.75;;
32216;SDS011;18709;51.140;4.088;2022-11-20T04:55:21;66.18;;;29.70;;
32216;SDS011;18709;51.140;4.088;2022-11-20T04:57:49;68.40;;;30.15;;
32216;SDS011;18709;51.140;4.088;2022-11-20T05:00:16;63.28;;;29.95;;
32216;SDS011;18709;51.140;4.088;2022-11-20T05:02:43;71.57;;;30.42;;
32216;SDS011;18709;51.140;4.088;2022-11-20T05:05:09;72.25;;;29.23;;
32216;SDS011;18709;51.140;4.088;2022-11-20T05:07:34;73.38;;;31.63;;
32216;SDS011;18709;51.140;4.088;2022-11-20T05:10:00;72.50;;;31.52;;
32216;SDS011;18709;51.140;4.088;2022-11-20T05:12:26;76.72;;;32.28;;
32216;SDS011;18709;51.140;4.088;2022-11-20T05:14:52;80.47;;;32.97;;
32216;SDS011;18709;51.140;4.088;2022-11-20T05:17:17;77.40;;;33.20;;
32216;SDS011;18709;51.140;4.088;2022-11-20T05:19:43;77.72;;;32.30;;
32216;SDS011;18709;51.140;4.088;2022-11-20T05:22:09;83.97;;;34.15;;
32216;SDS011;18709;51.140;4.088;2022-11-20T05:24:34;78.68;;;32.38;;
32216;SDS011;18709;51.140;4.088;2022-11-20T05:27:00;71.47;;;31.10;;
32216;SDS011;18709;51.140;4.088;2022-11-20T05:29:26;81.35;;;32.55;;
32216;SDS011;18709;51.140;4.088;2022-11-20T05:31:52;75.57;;;33.15;;
32216;SDS011;18709;51.140;4.088;2022-11-20T05:34:18;72.20;;;31.75;;
32216;SDS011;18709;51.140;4.088;2022-11-20T05:36:44;71.60;;;32.60;;
32216;SDS011;18709;51.140;4.088;2022-11-20T05:39:09;74.53;;;32.25;;
32216;SDS011;18709;51.140;4.088;2022-11-20T05:41:35;70.93;;;32.30;;
32216;SDS011;18709;51.140;4.088;2022-11-20T05:44:03;71.13;;;30.52;;
32216;SDS011;18709;51.140;4.088;2022-11-20T05:46:29;72.22;;;30.85;;
32216;SDS011;18709;51.140;4.088;2022-11-20T05:48:55;68.97;;;29.75;;
32216;SDS011;18709;51.140;4.088;2022-11-20T05:51:21;73.35;;;30.95;;
32216;SDS011;18709;51.140;4.088;2022-11-20T05:53:47;82.15;;;32.90;;
32216;SDS011;18709;51.140;4.088;2022-11-20T05:56:14;89.05;;;36.40;;
32216;SDS011;18709;51.140;4.088;2022-11-20T05:58:42;85.70;;;36.15;;
32216;SDS011;18709;51.140;4.088;2022-11-20T06:01:16;75.50;;;34.30;;
32216;SDS011;18709;51.140;4.088;2022-11-20T06:03:47;74.28;;;32.83;;
32216;SDS011;18709;51.140;4.088;2022-11-20T06:06:15;72.82;;;30.48;;
32216;SDS011;18709;51.140;4.088;2022-11-20T06:08:42;72.90;;;30.17;;
32216;SDS011;18709;51.140;4.088;2022-11-20T06:11:09;74.60;;;30.45;;
32216;SDS011;18709;51.140;4.088;2022-11-20T06:13:37;76.13;;;32.17;;
32216;SDS011;18709;51.140;4.088;2022-11-20T06:16:03;68.68;;;31.13;;
32216;SDS011;18709;51.140;4.088;2022-11-20T06:18:29;78.75;;;32.40;;
32216;SDS011;18709;51.140;4.088;2022-11-20T06:21:15;69.00;;;30.90;;
32216;SDS011;18709;51.140;4.088;2022-11-20T06:23:43;67.68;;;29.90;;
32216;SDS011;18709;51.140;4.088;2022-11-20T06:26:11;72.25;;;31.67;;
32216;SDS011;18709;51.140;4.088;2022-11-20T06:28:44;76.28;;;31.42;;
32216;SDS011;18709;51.140;4.088;2022-11-20T06:31:11;70.72;;;30.52;;
32216;SDS011;18709;51.140;4.088;2022-11-20T06:33:39;78.57;;;31.40;;
32216;SDS011;18709;51.140;4.088;2022-11-20T06:36:05;73.07;;;31.63;;
32216;SDS011;18709;51.140;4.088;2022-11-20T06:38:31;79.03;;;31.42;;
32216;SDS011;18709;51.140;4.088;2022-11-20T06:40:57;75.60;;;31.90;;
32216;SDS011;18709;51.140;4.088;2022-11-20T06:43:23;77.47;;;32.72;;
32216;SDS011;18709;51.140;4.088;2022-11-20T06:45:53;80.53;;;32.55;;
32216;SDS011;18709;51.140;4.088;2022-11-20T06:48:20;83.60;;;34.15;;
32216;SDS011;18709;51.140;4.088;2022-11-20T06:50:46;78.57;;;32.10;;
32216;SDS011;18709;51.140;4.088;2022-11-20T06:53:12;78.20;;;33.72;;
32216;SDS011;18709;51.140;4.088;2022-11-20T06:55:41;87.28;;;33.90;;
32216;SDS011;18709;51.140;4.088;2022-11-20T06:58:08;93.32;;;35.85;;
32216;SDS011;18709;51.140;4.088;2022-11-20T07:00:34;90.45;;;33.72;;
32216;SDS011;18709;51.140;4.088;2022-11-20T07:03:10;90.43;;;32.85;;
32216;SDS011;18709;51.140;4.088;2022-11-20T07:05:36;89.50;;;33.42;;
32216;SDS011;18709;51.140;4.088;2022-11-20T07:08:03;90.18;;;33.13;;
32216;SDS011;18709;51.140;4.088;2022-11-20T07:10:29;92.65;;;33.78;;
32216;SDS011;18709;51.140;4.088;2022-11-20T07:12:56;90.75;;;33.40;;
32216;SDS011;18709;51.140;4.088;2022-11-20T07:15:22;89.47;;;33.15;;
32216;SDS011;18709;51.140;4.088;2022-11-20T07:17:48;95.55;;;33.92;;
32216;SDS011;18709;51.140;4.088;2022-11-20T07:20:14;96.28;;;32.97;;
32216;SDS011;18709;51.140;4.088;2022-11-20T07:22:41;90.80;;;34.00;;
32216;SDS011;18709;51.140;4.088;2022-11-20T07:25:07;95.15;;;34.40;;
32216;SDS011;18709;51.140;4.088;2022-11-20T07:27:34;100.97;;;35.70;;
32216;SDS011;18709;51.140;4.088;2022-11-20T07:30:00;92.13;;;34.53;;
32216;SDS011;18709;51.140;4.088;2022-11-20T07:32:26;89.38;;;34.88;;
32216;SDS011;18709;51.140;4.088;2022-11-20T07:34:52;98.15;;;35.13;;
32216;SDS011;18709;51.140;4.088;2022-11-20T07:37:17;99.72;;;37.55;;
32216;SDS011;18709;51.140;4.088;2022-11-20T07:39:43;99.53;;;35.60;;
32216;SDS011;18709;51.140;4.088;2022-11-20T07:42:09;99.70;;;34.75;;
32216;SDS011;18709;51.140;4.088;2022-11-20T07:44:37;105.32;;;37.83;;
32216;SDS011;18709;51.140;4.088;2022-11-20T07:47:03;111.05;;;37.70;;
32216;SDS011;18709;51.140;4.088;2022-11-20T07:49:28;114.20;;;37.60;;
32216;SDS011;18709;51.140;4.088;2022-11-20T07:52:03;108.38;;;38.33;;
32216;SDS011;18709;51.140;4.088;2022-11-20T07:54:29;104.78;;;36.30;;
32216;SDS011;18709;51.140;4.088;2022-11-20T07:56:55;103.53;;;35.97;;
32216;SDS011;18709;51.140;4.088;2022-11-20T07:59:20;104.78;;;37.17;;
32216;SDS011;18709;51.140;4.088;2022-11-20T08:01:46;104.72;;;35.85;;
32216;SDS011;18709;51.140;4.088;2022-11-20T08:04:12;99.97;;;35.38;;
32216;SDS011;18709;51.140;4.088;2022-11-20T08:06:37;100.53;;;35.35;;
32216;SDS011;18709;51.140;4.088;2022-11-20T08:09:03;108.35;;;35.63;;
32216;SDS011;18709;51.140;4.088;2022-11-20T08:11:29;105.78;;;36.78;;
32216;SDS011;18709;51.140;4.088;2022-11-20T08:14:14;104.25;;;36.25;;
32216;SDS011;18709;51.140;4.088;2022-11-20T08:16:44;102.88;;;34.97;;
32216;SDS011;18709;51.140;4.088;2022-11-20T08:19:12;105.00;;;34.17;;
32216;SDS011;18709;51.140;4.088;2022-11-20T08:21:39;94.68;;;33.63;;
32216;SDS011;18709;51.140;4.088;2022-11-20T08:24:05;106.00;;;35.00;;
32216;SDS011;18709;51.140;4.088;2022-11-20T08:26:31;100.65;;;34.63;;
32216;SDS011;18709;51.140;4.088;2022-11-20T08:28:58;108.63;;;36.80;;
32216;SDS011;18709;51.140;4.088;2022-11-20T08:31:24;112.20;;;36.45;;
32216;SDS011;18709;51.140;4.088;2022-11-20T08:33:51;109.10;;;35.38;;
32216;SDS011;18709;51.140;4.088;2022-11-20T08:36:17;97.63;;;34.53;;
32216;SDS011;18709;51.140;4.088;2022-11-20T08:38:47;108.90;;;35.88;;
32216;SDS011;18709;51.140;4.088;2022-11-20T08:41:13;108.38;;;36.55;;
32216;SDS011;18709;51.140;4.088;2022-11-20T08:44:03;101.80;;;33.40;;
32216;SDS011;18709;51.140;4.088;2022-11-20T08:46:35;112.97;;;34.70;;
32216;SDS011;18709;51.140;4.088;2022-11-20T08:49:06;107.78;;;33.53;;
32216;SDS011;18709;51.140;4.088;2022-11-20T08:51:34;112.00;;;36.17;;
32216;SDS011;18709;51.140;4.088;2022-11-20T08:54:00;122.90;;;36.72;;
32216;SDS011;18709;51.140;4.088;2022-11-20T08:56:26;119.07;;;36.60;;
32216;SDS011;18709;51.140;4.088;2022-11-20T08:58:52;114.80;;;37.97;;
32216;SDS011;18709;51.140;4.088;2022-11-20T09:01:18;117.15;;;35.95;;
32216;SDS011;18709;51.140;4.088;2022-11-20T09:03:45;104.00;;;36.40;;
32216;SDS011;18709;51.140;4.088;2022-11-20T09:06:11;115.20;;;36.92;;
32216;SDS011;18709;51.140;4.088;2022-11-20T09:08:36;113.18;;;35.28;;
32216;SDS011;18709;51.140;4.088;2022-11-20T09:11:03;113.22;;;36.17;;
32216;SDS011;18709;51.140;4.088;2022-11-20T09:13:29;110.85;;;36.72;;
32216;SDS011;18709;51.140;4.088;2022-11-20T09:15:57;112.88;;;34.38;;
32216;SDS011;18709;51.140;4.088;2022-11-20T09:18:26;107.38;;;35.30;;
32216;SDS011;18709;51.140;4.088;2022-11-20T09:20:59;101.65;;;33.13;;
32216;SDS011;18709;51.140;4.088;2022-11-20T09:23:27;104.07;;;36.55;;
32216;SDS011;18709;51.140;4.088;2022-11-20T09:25:56;103.85;;;35.35;;
32216;SDS011;18709;51.140;4.088;2022-11-20T09:28:24;116.68;;;35.30;;
32216;SDS011;18709;51.140;4.088;2022-11-20T09:30:50;106.15;;;34.58;;
32216;SDS011;18709;51.140;4.088;2022-11-20T09:33:16;110.13;;;35.53;;
32216;SDS011;18709;51.140;4.088;2022-11-20T09:35:42;103.07;;;34.45;;
32216;SDS011;18709;51.140;4.088;2022-11-20T09:38:09;97.68;;;34.35;;
32216;SDS011;18709;51.140;4.088;2022-11-20T09:40:36;96.15;;;32.45;;
32216;SDS011;18709;51.140;4.088;2022-11-20T09:46:04;99.38;;;33.58;;
32216;SDS011;18709;51.140;4.088;2022-11-20T09:56:33;92.00;;;32.42;;
32216;SDS011;18709;51.140;4.088;2022-11-20T09:59:04;94.53;;;31.37;;
32216;SDS011;18709;51.140;4.088;2022-11-20T10:01:35;91.10;;;31.45;;
32216;SDS011;18709;51.140;4.088;2022-11-20T10:04:04;94.22;;;30.42;;
32216;SDS011;18709;51.140;4.088;2022-11-20T10:06:40;101.00;;;32.72;;
32216;SDS011;18709;51.140;4.088;2022-11-20T10:11:46;88.10;;;29.77;;
32216;SDS011;18709;51.140;4.088;2022-11-20T10:25:17;75.50;;;27.35;;
32216;SDS011;18709;51.140;4.088;2022-11-20T10:30:33;84.35;;;29.42;;
32216;SDS011;18709;51.140;4.088;2022-11-20T10:33:16;73.53;;;28.75;;
32216;SDS011;18709;51.140;4.088;2022-11-20T10:41:26;79.40;;;27.55;;
32216;SDS011;18709;51.140;4.088;2022-11-20T10:44:01;65.45;;;25.35;;
32216;SDS011;18709;51.140;4.088;2022-11-20T10:47:11;68.07;;;25.08;;
32216;SDS011;18709;51.140;4.088;2022-11-20T10:49:42;70.60;;;25.85;;
32216;SDS011;18709;51.140;4.088;2022-11-20T10:58:10;66.50;;;26.45;;
32216;SDS011;18709;51.140;4.088;2022-11-20T11:00:41;67.32;;;25.25;;
32216;SDS011;18709;51.140;4.088;2022-11-20T11:03:26;70.38;;;27.88;;
32216;SDS011;18709;51.140;4.088;2022-11-20T11:09:09;58.95;;;25.15;;
32216;SDS011;18709;51.140;4.088;2022-11-20T11:11:40;57.47;;;24.83;;
32216;SDS011;18709;51.140;4.088;2022-11-20T11:14:10;65.88;;;26.90;;
32216;SDS011;18709;51.140;4.088;2022-11-20T11:16:48;61.40;;;25.23;;
32216;SDS011;18709;51.140;4.088;2022-11-20T11:19:23;48.88;;;20.60;;
32216;SDS011;18709;51.140;4.088;2022-11-20T11:21:54;47.05;;;20.67;;
32216;SDS011;18709;51.140;4.088;2022-11-20T11:24:25;46.35;;;19.27;;
32216;SDS011;18709;51.140;4.088;2022-11-20T11:26:59;39.90;;;17.40;;
32216;SDS011;18709;51.140;4.088;2022-11-20T11:29:31;31.88;;;15.43;;
32216;SDS011;18709;51.140;4.088;2022-11-20T11:32:05;34.83;;;14.35;;
32216;SDS011;18709;51.140;4.088;2022-11-20T11:34:38;31.48;;;13.48;;
32216;SDS011;18709;51.140;4.088;2022-11-20T11:37:04;32.47;;;12.07;;
32216;SDS011;18709;51.140;4.088;2022-11-20T11:39:38;26.33;;;11.60;;
32216;SDS011;18709;51.140;4.088;2022-11-20T11:42:07;24.63;;;10.80;;
32216;SDS011;18709;51.140;4.088;2022-11-20T11:44:44;23.42;;;10.20;;
32216;SDS011;18709;51.140;4.088;2022-11-20T11:47:30;25.05;;;9.48;;
32216;SDS011;18709;51.140;4.088;2022-11-20T11:50:17;19.05;;;8.75;;
32216;SDS011;18709;51.140;4.088;2022-11-20T11:58:33;14.35;;;7.47;;
32216;SDS011;18709;51.140;4.088;2022-11-20T12:01:24;15.68;;;6.40;;
32216;SDS011;18709;51.140;4.088;2022-11-20T12:06:27;12.57;;;5.60;;
32216;SDS011;18709;51.140;4.088;2022-11-20T12:08:58;11.43;;;5.68;;
32216;SDS011;18709;51.140;4.088;2022-11-20T12:14:19;18.73;;;5.10;;
32216;SDS011;18709;51.140;4.088;2022-11-20T12:16:54;10.95;;;4.47;;
32216;SDS011;18709;51.140;4.088;2022-11-20T12:19:29;11.55;;;4.18;;
32216;SDS011;18709;51.140;4.088;2022-11-20T12:27:40;9.73;;;4.07;;
32216;SDS011;18709;51.140;4.088;2022-11-20T12:30:14;10.43;;;3.90;;
32216;SDS011;18709;51.140;4.088;2022-11-20T12:35:44;8.85;;;3.50;;
32216;SDS011;18709;51.140;4.088;2022-11-20T12:44:45;10.88;;;3.47;;
32216;SDS011;18709;51.140;4.088;2022-11-20T12:53:04;13.95;;;3.92;;
32216;SDS011;18709;51.140;4.088;2022-11-20T12:58:23;15.93;;;6.40;;
32216;SDS011;18709;51.140;4.088;2022-11-20T13:00:58;14.00;;;8.82;;
32216;SDS011;18709;51.140;4.088;2022-11-20T13:06:17;31.52;;;13.95;;
32216;SDS011;18709;51.140;4.088;2022-11-20T13:08:53;22.92;;;10.70;;
32216;SDS011;18709;51.140;4.088;2022-11-20T13:19:17;12.38;;;4.20;;
32216;SDS011;18709;51.140;4.088;2022-11-20T13:21:48;13.45;;;5.35;;
32216;SDS011;18709;51.140;4.088;2022-11-20T13:29:40;9.63;;;5.53;;
32216;SDS011;18709;51.140;4.088;2022-11-20T13:34:54;9.20;;;6.00;;
32216;SDS011;18709;51.140;4.088;2022-11-20T13:37:27;15.38;;;6.45;;
32216;SDS011;18709;51.140;4.088;2022-11-20T13:42:45;8.30;;;6.35;;
32216;SDS011;18709;51.140;4.088;2022-11-20T13:45:26;13.27;;;5.38;;
32216;SDS011;18709;51.140;4.088;2022-11-20T13:47:53;10.85;;;4.13;;
32216;SDS011;18709;51.140;4.088;2022-11-20T13:50:21;7.22;;;4.38;;
32216;SDS011;18709;51.140;4.088;2022-11-20T14:01:20;4.82;;;3.05;;
32216;SDS011;18709;51.140;4.088;2022-11-20T14:03:48;4.93;;;2.72;;
32216;SDS011;18709;51.140;4.088;2022-11-20T14:06:21;7.03;;;3.75;;
32216;SDS011;18709;51.140;4.088;2022-11-20T14:08:52;3.90;;;2.55;;
32216;SDS011;18709;51.140;4.088;2022-11-20T14:11:19;6.28;;;2.85;;
32216;SDS011;18709;51.140;4.088;2022-11-20T14:14:00;5.80;;;2.80;;
32216;SDS011;18709;51.140;4.088;2022-11-20T14:16:39;3.80;;;2.40;;
32216;SDS011;18709;51.140;4.088;2022-11-20T14:21:46;6.35;;;2.92;;
32216;SDS011;18709;51.140;4.088;2022-11-20T14:24:12;7.93;;;3.60;;
32216;SDS011;18709;51.140;4.088;2022-11-20T14:26:44;5.97;;;3.75;;
32216;SDS011;18709;51.140;4.088;2022-11-20T14:29:19;5.43;;;2.20;;
32216;SDS011;18709;51.140;4.088;2022-11-20T14:31:53;3.13;;;2.13;;
32216;SDS011;18709;51.140;4.088;2022-11-20T14:34:39;4.10;;;2.17;;
32216;SDS011;18709;51.140;4.088;2022-11-20T14:37:09;4.35;;;2.58;;
32216;SDS011;18709;51.140;4.088;2022-11-20T14:39:41;3.53;;;2.40;;
32216;SDS011;18709;51.140;4.088;2022-11-20T14:42:17;5.65;;;2.97;;
32216;SDS011;18709;51.140;4.088;2022-11-20T14:44:45;3.60;;;2.50;;
32216;SDS011;18709;51.140;4.088;2022-11-20T14:47:15;6.05;;;3.00;;
32216;SDS011;18709;51.140;4.088;2022-11-20T14:49:54;6.73;;;3.33;;
32216;SDS011;18709;51.140;4.088;2022-11-20T14:52:21;5.40;;;3.17;;
32216;SDS011;18709;51.140;4.088;2022-11-20T14:54:49;7.72;;;3.40;;
32216;SDS011;18709;51.140;4.088;2022-11-20T15:00:07;7.45;;;3.50;;
32216;SDS011;18709;51.140;4.088;2022-11-20T15:02:33;4.80;;;3.00;;
32216;SDS011;18709;51.140;4.088;2022-11-20T15:05:00;3.75;;;2.83;;
32216;SDS011;18709;51.140;4.088;2022-11-20T15:07:32;6.53;;;3.75;;
32216;SDS011;18709;51.140;4.088;2022-11-20T15:12:27;9.70;;;3.70;;
32216;SDS011;18709;51.140;4.088;2022-11-20T15:14:55;7.88;;;4.00;;
32216;SDS011;18709;51.140;4.088;2022-11-20T15:17:20;10.25;;;4.13;;
32216;SDS011;18709;51.140;4.088;2022-11-20T15:19:46;7.93;;;4.35;;
32216;SDS011;18709;51.140;4.088;2022-11-20T15:22:12;8.38;;;4.03;;
32216;SDS011;18709;51.140;4.088;2022-11-20T15:24:38;8.30;;;4.35;;
32216;SDS011;18709;51.140;4.088;2022-11-20T15:27:04;14.60;;;4.57;;
32216;SDS011;18709;51.140;4.088;2022-11-20T15:29:29;10.02;;;4.88;;
32216;SDS011;18709;51.140;4.088;2022-11-20T15:31:55;8.70;;;4.32;;
32216;SDS011;18709;51.140;4.088;2022-11-20T15:34:21;10.68;;;4.88;;
32216;SDS011;18709;51.140;4.088;2022-11-20T15:36:47;11.52;;;4.90;;
32216;SDS011;18709;51.140;4.088;2022-11-20T15:39:13;14.35;;;4.95;;
32216;SDS011;18709;51.140;4.088;2022-11-20T15:41:39;12.93;;;4.30;;
32216;SDS011;18709;51.140;4.088;2022-11-20T15:44:05;10.45;;;4.50;;
32216;SDS011;18709;51.140;4.088;2022-11-20T15:46:32;14.35;;;4.95;;
32216;SDS011;18709;51.140;4.088;2022-11-20T15:49:03;16.15;;;5.13;;
32216;SDS011;18709;51.140;4.088;2022-11-20T15:51:36;19.08;;;5.25;;
32216;SDS011;18709;51.140;4.088;2022-11-20T15:54:09;19.50;;;4.70;;
32216;SDS011;18709;51.140;4.088;2022-11-20T15:56:36;23.70;;;5.13;;
32216;SDS011;18709;51.140;4.088;2022-11-20T15:59:02;24.00;;;3.78;;
32216;SDS011;18709;51.140;4.088;2022-11-20T16:01:28;23.02;;;4.50;;
32216;SDS011;18709;51.140;4.088;2022-11-20T16:03:53;17.42;;;4.25;;
32216;SDS011;18709;51.140;4.088;2022-11-20T16:06:19;24.77;;;4.47;;
32216;SDS011;18709;51.140;4.088;2022-11-20T16:08:45;19.55;;;4.50;;
32216;SDS011;18709;51.140;4.088;2022-11-20T16:11:14;21.98;;;5.00;;
32216;SDS011;18709;51.140;4.088;2022-11-20T16:13:41;35.13;;;5.72;;
32216;SDS011;18709;51.140;4.088;2022-11-20T16:16:30;36.80;;;6.30;;
32216;SDS011;18709;51.140;4.088;2022-11-20T16:19:01;28.05;;;5.63;;
32216;SDS011;18709;51.140;4.088;2022-11-20T16:21:27;26.05;;;6.70;;
32216;SDS011;18709;51.140;4.088;2022-11-20T16:23:59;31.65;;;6.70;;
32216;SDS011;18709;51.140;4.088;2022-11-20T16:26:26;32.38;;;6.03;;
32216;SDS011;18709;51.140;4.088;2022-11-20T16:28:52;30.20;;;8.00;;
32216;SDS011;18709;51.140;4.088;2022-11-20T16:31:18;27.42;;;6.18;;
32216;SDS011;18709;51.140;4.088;2022-11-20T16:33:51;27.35;;;6.47;;
32216;SDS011;18709;51.140;4.088;2022-11-20T16:36:19;30.25;;;7.20;;
32216;SDS011;18709;51.140;4.088;2022-11-20T16:38:46;28.05;;;5.43;;
32216;SDS011;18709;51.140;4.088;2022-11-20T16:41:16;32.60;;;5.55;;
32216;SDS011;18709;51.140;4.088;2022-11-20T16:43:45;27.75;;;5.45;;
32216;SDS011;18709;51.140;4.088;2022-11-20T16:46:16;25.90;;;5.60;;
32216;SDS011;18709;51.140;4.088;2022-11-20T16:48:52;29.30;;;5.25;;
32216;SDS011;18709;51.140;4.088;2022-11-20T16:51:19;19.40;;;4.32;;
32216;SDS011;18709;51.140;4.088;2022-11-20T16:53:45;17.75;;;4.57;;
32216;SDS011;18709;51.140;4.088;2022-11-20T16:56:14;20.63;;;5.82;;